createdAt,value
2023-02-11T00:00:48.012Z,102529.06
2023-02-11T00:03:15.754Z,102519.28
2023-02-11T00:05:43.345Z,102524.31
2023-02-11T00:08:16.814Z,102520.81
2023-02-11T00:10:46.310Z,102522.06
2023-02-11T00:13:15.204Z,102524.31
2023-02-11T00:15:42.731Z,102528.59
2023-02-11T00:18:10.254Z,102526.50
2023-02-11T00:20:39.642Z,102514.22
2023-02-11T00:23:07.241Z,102512.69
2023-02-11T00:25:37.274Z,102518.81
2023-02-11T00:28:05.379Z,102525.97
2023-02-11T00:30:34.877Z,102521.47
2023-02-11T00:33:02.551Z,102529.00
2023-02-11T00:35:30.367Z,102520.06
2023-02-11T00:37:58.230Z,102523.13
2023-02-11T00:40:26.119Z,102525.94
2023-02-11T00:42:53.683Z,102518.09
2023-02-11T00:45:21.832Z,102511.44
2023-02-11T00:47:50.728Z,102502.19
2023-02-11T00:50:18.306Z,102495.50
2023-02-11T00:52:45.836Z,102484.06
2023-02-11T00:55:13.434Z,102485.31
2023-02-11T00:57:41.201Z,102484.91
2023-02-11T01:00:12.102Z,102469.25
2023-02-11T01:02:39.750Z,102456.97
2023-02-11T01:05:09.498Z,102452.50
2023-02-11T01:07:37.032Z,102456.81
2023-02-11T01:10:05.248Z,102466.75
2023-02-11T01:12:35.259Z,102463.81
2023-02-11T01:15:04.863Z,102465.19
2023-02-11T01:17:34.020Z,102468.56
2023-02-11T01:20:03.210Z,102473.88
2023-02-11T01:22:32.146Z,102465.34
2023-02-11T01:24:59.706Z,102459.50
2023-02-11T01:27:27.282Z,102466.34
2023-02-11T01:29:54.840Z,102460.75
2023-02-11T01:32:22.376Z,102459.78
2023-02-11T01:34:50.015Z,102453.75
2023-02-11T01:37:17.606Z,102451.09
2023-02-11T01:39:46.511Z,102455.16
2023-02-11T01:42:17.671Z,102450.03
2023-02-11T01:44:45.311Z,102452.09
2023-02-11T01:47:13.015Z,102446.09
2023-02-11T01:49:44.657Z,102442.31
2023-02-11T01:52:15.927Z,102438.81
2023-02-11T01:55:06.335Z,102444.56
2023-02-11T01:57:37.908Z,102440.22
2023-02-11T02:00:13.688Z,102441.06
2023-02-11T02:02:49.605Z,102447.78
2023-02-11T02:05:25.255Z,102439.94
2023-02-11T02:08:00.129Z,102440.22
2023-02-11T02:10:31.208Z,102444.56
2023-02-11T02:12:58.954Z,102438.28
2023-02-11T02:15:30.150Z,102424.16
2023-02-11T02:18:02.190Z,102424.59
2023-02-11T02:21:09.809Z,102419.72
2023-02-11T02:23:53.470Z,102417.34
2023-02-11T02:26:54.931Z,102415.09
2023-02-11T02:29:58.418Z,102407.25
2023-02-11T02:33:22.492Z,102394.53
2023-02-11T02:36:01.750Z,102392.03
2023-02-11T02:38:33.913Z,102399.00
2023-02-11T02:41:07.220Z,102385.44
2023-02-11T02:43:38.068Z,102384.88
2023-02-11T02:46:14.013Z,102388.22
2023-02-11T02:48:41.588Z,102389.06
2023-02-11T02:51:21.302Z,102396.91
2023-02-11T02:54:00.784Z,102390.06
2023-02-11T02:56:38.653Z,102394.13
2023-02-11T02:59:29.773Z,102391.31
2023-02-11T03:02:07.142Z,102386.53
2023-02-11T03:04:42.125Z,102400.81
2023-02-11T03:07:17.977Z,102384.34
2023-02-11T03:09:52.597Z,102389.50
2023-02-11T03:12:22.863Z,102397.44
2023-02-11T03:14:52.859Z,102391.84
2023-02-11T03:17:22.176Z,102389.19
2023-02-11T03:19:51.631Z,102396.19
2023-02-11T03:22:25.813Z,102380.66
2023-02-11T03:24:54.459Z,102379.97
2023-02-11T03:27:26.926Z,102372.00
2023-02-11T03:30:00.329Z,102372.97
2023-02-11T03:32:30.942Z,102365.00
2023-02-11T03:35:01.723Z,102355.22
2023-02-11T03:37:36.476Z,102350.09
2023-02-11T03:40:09.050Z,102348.09
2023-02-11T03:42:41.965Z,102359.69
2023-02-11T03:45:13.744Z,102346.84
2023-02-11T03:47:44.611Z,102353.13
2023-02-11T03:50:15.538Z,102343.47
2023-02-11T03:52:46.139Z,102340.78
2023-02-11T03:55:18.242Z,102345.25
2023-02-11T03:57:46.099Z,102350.56
2023-02-11T04:00:14.500Z,102343.28
2023-02-11T04:02:42.907Z,102348.31
2023-02-11T04:05:13.358Z,102345.81
2023-02-11T04:07:40.994Z,102359.66
2023-02-11T04:10:10.099Z,102355.41
2023-02-11T04:12:37.674Z,102358.06
2023-02-11T04:15:05.887Z,102359.47
2023-02-11T04:17:33.546Z,102368.13
2023-02-11T04:20:01.160Z,102358.50
2023-02-11T04:22:28.810Z,102361.16
2023-02-11T04:24:56.357Z,102353.19
2023-02-11T04:27:25.443Z,102363.50
2023-02-11T04:29:54.080Z,102372.16
2023-02-11T04:32:21.688Z,102376.63
2023-02-11T04:34:49.380Z,102372.16
2023-02-11T04:37:16.986Z,102367.22
2023-02-11T04:39:44.564Z,102373.56
2023-02-11T04:42:12.137Z,102358.00
2023-02-11T04:44:41.019Z,102366.09
2023-02-11T04:47:08.666Z,102360.66
2023-02-11T04:49:36.350Z,102358.97
2023-02-11T04:52:04.157Z,102357.59
2023-02-11T04:54:31.745Z,102370.47
2023-02-11T04:56:59.279Z,102347.56
2023-02-11T04:59:26.918Z,102349.50
2023-02-11T05:01:55.810Z,102369.97
2023-02-11T05:04:23.434Z,102352.88
2023-02-11T05:06:51.100Z,102363.81
2023-02-11T05:09:18.708Z,102370.94
2023-02-11T05:11:46.250Z,102381.97
2023-02-11T05:14:13.937Z,102372.75
2023-02-11T05:16:41.557Z,102376.97
2023-02-11T05:19:10.515Z,102368.56
2023-02-11T05:21:38.029Z,102368.69
2023-02-11T05:24:06.339Z,102364.09
2023-02-11T05:26:33.944Z,102365.06
2023-02-11T05:29:01.702Z,102354.59
2023-02-11T05:31:29.334Z,102352.38
2023-02-11T05:33:56.907Z,102353.50
2023-02-11T05:36:25.817Z,102346.38
2023-02-11T05:38:53.365Z,102331.09
2023-02-11T05:41:21.095Z,102323.09
2023-02-11T05:43:49.823Z,102333.19
2023-02-11T05:46:17.800Z,102327.75
2023-02-11T05:48:45.398Z,102332.22
2023-02-11T05:51:12.928Z,102326.59
2023-02-11T05:53:41.814Z,102340.88
2023-02-11T05:56:10.404Z,102337.22
2023-02-11T05:58:38.625Z,102327.84
2023-02-11T06:01:06.276Z,102333.56
2023-02-11T06:03:33.904Z,102325.47
2023-02-11T06:06:01.472Z,102324.63
2023-02-11T06:08:29.022Z,102322.34
2023-02-11T06:10:57.894Z,102310.88
2023-02-11T06:13:25.384Z,102317.63
2023-02-11T06:16:00.227Z,102321.50
2023-02-11T06:18:28.151Z,102337.63
2023-02-11T06:20:56.078Z,102349.94
2023-02-11T06:23:23.707Z,102353.28
2023-02-11T06:25:51.626Z,102350.31
2023-02-11T06:28:20.968Z,102358.00
2023-02-11T06:30:48.697Z,102359.38
2023-02-11T06:33:16.772Z,102367.06
2023-02-11T06:35:44.376Z,102367.88
2023-02-11T06:38:11.985Z,102383.00
2023-02-11T06:40:39.619Z,102366.53
2023-02-11T06:43:07.126Z,102378.66
2023-02-11T06:45:36.027Z,102370.69
2023-02-11T06:48:03.585Z,102377.16
2023-02-11T06:50:31.223Z,102387.50
2023-02-11T06:53:00.045Z,102378.00
2023-02-11T06:55:27.869Z,102379.94
2023-02-11T06:57:55.463Z,102380.66
2023-02-11T07:00:23.127Z,102389.59
2023-02-11T07:02:52.068Z,102379.94
2023-02-11T07:05:19.971Z,102392.63
2023-02-11T07:07:47.561Z,102393.31
2023-02-11T07:10:15.160Z,102392.81
2023-02-11T07:12:42.701Z,102402.28
2023-02-11T07:15:10.531Z,102402.00
2023-02-11T07:17:38.548Z,102398.34
2023-02-11T07:20:09.038Z,102390.22
2023-02-11T07:22:37.323Z,102384.06
2023-02-11T07:25:05.331Z,102385.75
2023-02-11T07:27:33.122Z,102390.22
2023-02-11T07:30:00.731Z,102384.06
2023-02-11T07:32:28.282Z,102388.72
2023-02-11T07:34:55.927Z,102399.19
2023-02-11T07:37:24.882Z,102395.09
2023-02-11T07:39:52.526Z,102391.75
2023-02-11T07:42:20.079Z,102395.25
2023-02-11T07:44:50.325Z,102408.94
2023-02-11T07:47:18.193Z,102427.25
2023-02-11T07:49:47.584Z,102433.03
2023-02-11T07:52:15.152Z,102425.72
2023-02-11T07:54:44.261Z,102430.75
2023-02-11T07:57:12.075Z,102433.13
2023-02-11T07:59:39.600Z,102437.47
2023-02-11T08:02:07.259Z,102444.44
2023-02-11T08:04:34.808Z,102441.38
2023-02-11T08:07:02.345Z,102437.47
2023-02-11T08:09:30.860Z,102442.78
2023-02-11T08:12:01.094Z,102453.66
2023-02-11T08:14:28.702Z,102448.03
2023-02-11T08:16:56.384Z,102453.66
2023-02-11T08:19:23.993Z,102457.84
2023-02-11T08:21:51.495Z,102455.19
2023-02-11T08:24:19.061Z,102462.88
2023-02-11T08:26:46.639Z,102470.16
2023-02-11T08:29:17.222Z,102466.06
2023-02-11T08:31:46.690Z,102476.84
2023-02-11T08:34:18.186Z,102488.03
2023-02-11T08:36:47.389Z,102488.47
2023-02-11T08:39:20.338Z,102490.84
2023-02-11T08:41:49.681Z,102492.66
2023-02-11T08:44:18.621Z,102494.50
2023-02-11T08:46:46.787Z,102494.19
2023-02-11T08:49:14.766Z,102488.19
2023-02-11T08:51:42.542Z,102482.28
2023-02-11T08:54:10.297Z,102493.88
2023-02-11T08:56:38.991Z,102491.09
2023-02-11T08:59:07.433Z,102501.19
2023-02-11T09:01:36.453Z,102486.44
2023-02-11T09:04:04.217Z,102505.22
2023-02-11T09:06:31.788Z,102499.19
2023-02-11T09:08:59.702Z,102494.97
2023-02-11T09:11:29.968Z,102494.97
2023-02-11T09:13:58.017Z,102485.31
2023-02-11T09:16:28.090Z,102497.94
2023-02-11T09:18:58.806Z,102498.91
2023-02-11T09:21:27.034Z,102500.31
2023-02-11T09:23:55.349Z,102499.88
2023-02-11T09:26:25.397Z,102501.69
2023-02-11T09:28:53.204Z,102505.31
2023-02-11T09:31:23.300Z,102505.72
2023-02-11T09:33:53.534Z,102508.66
2023-02-11T09:36:25.395Z,102513.69
2023-02-11T09:38:53.573Z,102511.03
2023-02-11T09:41:40.403Z,102517.34
2023-02-11T09:44:11.176Z,102518.72
2023-02-11T09:46:42.958Z,102519.13
2023-02-11T09:49:20.702Z,102517.16
2023-02-11T09:51:52.611Z,102531.44
2023-02-11T09:54:24.379Z,102529.47
2023-02-11T09:56:52.360Z,102539.00
2023-02-11T09:59:20.192Z,102540.56
2023-02-11T10:01:51.462Z,102533.78
2023-02-11T10:04:31.645Z,102520.06
2023-02-11T10:07:07.786Z,102523.69
2023-02-11T10:09:49.788Z,102524.25
2023-02-11T10:12:30.353Z,102540.22
2023-02-11T10:15:09.995Z,102539.91
2023-02-11T10:17:46.997Z,102548.59
2023-02-11T10:20:26.381Z,102554.59
2023-02-11T10:22:58.067Z,102557.25
2023-02-11T10:25:27.249Z,102553.06
2023-02-11T10:27:58.680Z,102549.56
2023-02-11T10:30:31.827Z,102560.75
2023-02-11T10:33:05.150Z,102561.88
2023-02-11T10:35:33.273Z,102572.13
2023-02-11T10:38:02.185Z,102563.13
2023-02-11T10:40:32.059Z,102563.81
2023-02-11T10:43:03.680Z,102559.31
2023-02-11T10:45:34.381Z,102550.34
2023-02-11T10:48:02.343Z,102542.06
2023-02-11T10:50:33.336Z,102545.41
2023-02-11T10:53:19.781Z,102544.59
2023-02-11T10:55:52.138Z,102547.25
2023-02-11T10:58:26.850Z,102549.38
2023-02-11T11:00:56.550Z,102555.75
2023-02-11T11:03:26.234Z,102554.09
2023-02-11T11:05:58.156Z,102540.69
2023-02-11T11:08:41.212Z,102557.38
2023-02-11T11:11:10.934Z,102552.63
2023-02-11T11:13:40.849Z,102548.00
2023-02-11T11:16:16.454Z,102548.97
2023-02-11T11:18:46.032Z,102541.28
2023-02-11T11:21:17.371Z,102544.66
2023-02-11T11:23:57.287Z,102529.06
2023-02-11T11:26:26.538Z,102558.50
2023-02-11T11:29:04.033Z,102544.06
2023-02-11T11:31:35.620Z,102551.03
2023-02-11T11:34:22.794Z,102545.03
2023-02-11T11:36:51.546Z,102551.28
2023-02-11T11:39:24.260Z,102563.63
2023-02-11T11:41:54.486Z,102552.16
2023-02-11T11:44:28.809Z,102552.72
2023-02-11T11:47:20.188Z,102561.25
2023-02-11T11:49:54.664Z,102560.25
2023-02-11T11:52:34.404Z,102574.94
2023-02-11T11:55:08.723Z,102573.13
2023-02-11T11:57:39.490Z,102578.16
2023-02-11T12:00:16.289Z,102575.31
2023-02-11T12:03:10.794Z,102582.88
2023-02-11T12:05:46.282Z,102588.22
2023-02-11T12:08:20.465Z,102586.53
2023-02-11T12:11:00.750Z,102586.53
2023-02-11T12:13:40.386Z,102599.16
2023-02-11T12:16:19.573Z,102601.53
2023-02-11T12:19:10.299Z,102603.88
2023-02-11T12:21:47.298Z,102588.50
2023-02-11T12:24:30.257Z,102587.81
2023-02-11T12:27:05.526Z,102590.19
2023-02-11T12:29:41.845Z,102586.81
2023-02-11T12:32:26.472Z,102577.56
2023-02-11T12:35:10.213Z,102585.63
2023-02-11T12:37:49.704Z,102570.72
2023-02-11T12:40:21.884Z,102581.69
2023-02-11T12:43:16.518Z,102581.97
2023-02-11T12:46:01.617Z,102599.91
2023-02-11T12:48:45.491Z,102581.97
2023-02-11T12:51:23.256Z,102573.28
2023-02-11T12:54:23.624Z,102583.63
2023-02-11T12:56:56.663Z,102578.00
2023-02-11T12:59:41.433Z,102578.31
2023-02-11T13:02:20.526Z,102593.00
2023-02-11T13:04:53.070Z,102593.31
2023-02-11T13:07:27.614Z,102604.34
2023-02-11T13:10:02.654Z,102609.28
2023-02-11T13:12:50.805Z,102598.81
2023-02-11T13:15:19.893Z,102606.63
2023-02-11T13:17:55.672Z,102604.66
2023-02-11T13:20:33.836Z,102620.31
2023-02-11T13:23:11.074Z,102594.16
2023-02-11T13:25:45.087Z,102602.69
2023-02-11T13:28:27.087Z,102583.75
2023-02-11T13:31:02.651Z,102601.38
2023-02-11T13:33:39.357Z,102594.78
2023-02-11T13:36:21.852Z,102597.81
2023-02-11T13:38:54.984Z,102586.47
2023-02-11T13:41:28.544Z,102580.19
2023-02-11T13:44:06.082Z,102595.56
2023-02-11T13:46:53.993Z,102593.56
2023-02-11T13:49:25.408Z,102590.22
2023-02-11T13:51:54.261Z,102590.28
2023-02-11T13:54:28.396Z,102612.91
2023-02-11T13:57:28.056Z,102602.00
2023-02-11T13:59:57.235Z,102619.91
2023-02-11T14:02:46.884Z,102619.06
2023-02-11T14:05:43.689Z,102622.81
2023-02-11T14:08:43.289Z,102620.13
2023-02-11T14:11:45.496Z,102625.47
2023-02-11T14:14:31.721Z,102636.00
2023-02-11T14:17:31.891Z,102634.94
2023-02-11T14:20:00.446Z,102653.44
2023-02-11T14:22:31.593Z,102642.53
2023-02-11T14:25:01.716Z,102650.38
2023-02-11T14:27:51.331Z,102642.22
2023-02-11T14:30:42.665Z,102644.22
2023-02-11T14:33:24.377Z,102644.50
2023-02-11T14:36:01.976Z,102647.09
2023-02-11T14:38:44.510Z,102655.47
2023-02-11T14:41:23.266Z,102654.22
2023-02-11T14:43:54.934Z,102689.00
2023-02-11T14:46:24.555Z,102667.59
2023-02-11T14:48:56.191Z,102684.16
2023-02-11T14:51:26.872Z,102686.94
2023-02-11T14:54:00.532Z,102701.50
2023-02-11T14:56:31.312Z,102720.16
2023-02-11T14:58:59.443Z,102698.03
2023-02-11T15:01:31.813Z,102707.28
2023-02-11T15:04:02.824Z,102704.63
2023-02-11T15:06:32.883Z,102685.28
2023-02-11T15:09:03.550Z,102706.03
2023-02-11T15:11:34.870Z,102703.06
2023-02-11T15:14:09.702Z,102714.00
2023-02-11T15:16:42.922Z,102715.00
2023-02-11T15:19:22.197Z,102722.53
2023-02-11T15:21:51.505Z,102722.25
2023-02-11T15:24:25.232Z,102724.22
2023-02-11T15:27:00.839Z,102727.88
2023-02-11T15:29:29.970Z,102735.00
2023-02-11T15:32:12.585Z,102740.09
2023-02-11T15:34:41.829Z,102736.47
2023-02-11T15:37:15.309Z,102743.75
2023-02-11T15:39:43.897Z,102738.72
2023-02-11T15:42:24.721Z,102730.16
2023-02-11T15:45:12.737Z,102726.53
2023-02-11T15:47:41.805Z,102732.44
2023-02-11T15:50:21.507Z,102733.56
2023-02-11T15:52:50.224Z,102738.59
2023-02-11T15:55:18.895Z,102747.16
2023-02-11T15:57:47.719Z,102733.72
2023-02-11T16:00:18.052Z,102754.84
2023-02-11T16:02:47.071Z,102747.31
2023-02-11T16:05:30.845Z,102749.00
2023-02-11T16:07:59.267Z,102753.19
2023-02-11T16:10:30.568Z,102763.53
2023-02-11T16:13:20.820Z,102767.19
2023-02-11T16:15:52.299Z,102762.00
2023-02-11T16:18:38.788Z,102769.00
2023-02-11T16:21:16.556Z,102781.31
2023-02-11T16:23:50.198Z,102778.09
2023-02-11T16:26:25.245Z,102789.84
2023-02-11T16:28:53.210Z,102798.25
2023-02-11T16:31:20.976Z,102800.50
2023-02-11T16:33:48.608Z,102800.91
2023-02-11T16:36:18.070Z,102819.13
2023-02-11T16:38:45.658Z,102803.16
2023-02-11T16:41:13.166Z,102805.53
2023-02-11T16:43:40.770Z,102813.25
2023-02-11T16:46:09.181Z,102811.44
2023-02-11T16:48:36.870Z,102817.03
2023-02-11T16:51:04.783Z,102826.81
2023-02-11T16:53:33.684Z,102820.66
2023-02-11T16:56:01.215Z,102829.06
2023-02-11T16:58:28.791Z,102839.00
2023-02-11T17:00:57.003Z,102841.66
2023-02-11T17:03:30.068Z,102838.03
2023-02-11T17:05:57.940Z,102841.53
2023-02-11T17:08:25.542Z,102836.63
2023-02-11T17:10:54.625Z,102831.84
2023-02-11T17:13:22.299Z,102827.25
2023-02-11T17:15:50.770Z,102842.22
2023-02-11T17:18:18.433Z,102844.44
2023-02-11T17:20:45.978Z,102848.34
2023-02-11T17:23:13.609Z,102846.41
2023-02-11T17:25:41.423Z,102853.69
2023-02-11T17:28:12.028Z,102868.78
2023-02-11T17:30:41.481Z,102877.50
2023-02-11T17:33:09.471Z,102880.00
2023-02-11T17:35:40.648Z,102875.53
2023-02-11T17:38:08.166Z,102878.59
2023-02-11T17:40:35.725Z,102879.88
2023-02-11T17:43:03.360Z,102890.63
2023-02-11T17:45:32.274Z,102889.25
2023-02-11T17:47:59.848Z,102896.41
2023-02-11T17:50:29.294Z,102899.34
2023-02-11T17:52:57.780Z,102906.03
2023-02-11T17:55:25.289Z,102903.25
2023-02-11T17:57:52.983Z,102895.66
2023-02-11T18:00:22.379Z,102892.19
2023-02-11T18:02:51.378Z,102901.69
2023-02-11T18:05:18.983Z,102905.75
2023-02-11T18:07:47.901Z,102896.78
2023-02-11T18:10:15.489Z,102902.94
2023-02-11T18:12:43.114Z,102905.47
2023-02-11T18:15:11.340Z,102913.72
2023-02-11T18:17:38.936Z,102922.66
2023-02-11T18:20:09.584Z,102926.75
2023-02-11T18:22:39.994Z,102946.59
2023-02-11T18:25:08.820Z,102934.84
2023-02-11T18:27:36.418Z,102939.84
2023-02-11T18:30:04.589Z,102937.94
2023-02-11T18:32:32.427Z,102935.13
2023-02-11T18:34:59.938Z,102948.56
2023-02-11T18:37:28.864Z,102946.88
2023-02-11T18:39:56.393Z,102948.81
2023-02-11T18:42:23.929Z,102953.88
2023-02-11T18:44:51.515Z,102954.72
2023-02-11T18:47:19.047Z,102949.41
2023-02-11T18:49:46.745Z,102951.38
2023-02-11T18:52:14.363Z,102965.06
2023-02-11T18:54:43.293Z,102969.41
2023-02-11T18:57:10.867Z,102971.69
2023-02-11T18:59:38.420Z,102984.72
2023-02-11T19:02:05.974Z,102981.06
2023-02-11T19:04:33.541Z,102991.88
2023-02-11T19:07:03.630Z,102990.47
2023-02-11T19:09:31.643Z,102995.78
2023-02-11T19:12:01.916Z,102993.66
2023-02-11T19:14:31.951Z,102998.41
2023-02-11T19:17:01.524Z,102995.63
2023-02-11T19:19:31.912Z,102992.22
2023-02-11T19:22:00.735Z,102988.59
2023-02-11T19:24:29.878Z,102976.53
2023-02-11T19:27:00.796Z,102965.91
2023-02-11T19:29:29.236Z,102966.91
2023-02-11T19:31:56.919Z,102973.47
2023-02-11T19:34:24.720Z,102978.25
2023-02-11T19:36:54.038Z,102985.78
2023-02-11T19:39:23.884Z,102978.50
2023-02-11T19:41:51.509Z,102977.81
2023-02-11T19:44:20.482Z,102967.03
2023-02-11T19:46:48.685Z,102964.09
2023-02-11T19:49:22.732Z,102960.59
2023-02-11T19:51:50.557Z,102959.63
2023-02-11T19:54:18.143Z,102969.31
2023-02-11T19:56:46.007Z,102964.78
2023-02-11T19:59:14.352Z,102964.53
2023-02-11T20:01:44.269Z,102964.53
2023-02-11T20:04:13.079Z,102965.63
2023-02-11T20:06:41.303Z,102975.34
2023-02-11T20:09:13.126Z,102977.56
2023-02-11T20:11:40.927Z,102983.44
2023-02-11T20:14:10.426Z,102992.44
2023-02-11T20:16:48.237Z,103001.81
2023-02-11T20:19:18.861Z,103005.47
2023-02-11T20:21:48.434Z,103010.50
2023-02-11T20:24:16.726Z,103006.28
2023-02-11T20:26:46.381Z,103015.09
2023-02-11T20:29:14.007Z,103008.56
2023-02-11T20:31:42.029Z,103005.19
2023-02-11T20:34:10.938Z,103006.59
2023-02-11T20:36:40.426Z,103006.59
2023-02-11T20:39:08.665Z,103014.25
2023-02-11T20:41:39.636Z,103016.09
2023-02-11T20:44:08.930Z,103024.19
2023-02-11T20:46:39.895Z,103036.81
2023-02-11T20:49:08.597Z,103035.69
2023-02-11T20:51:37.250Z,103040.47
2023-02-11T20:54:07.046Z,103031.22
2023-02-11T20:56:36.536Z,103033.34
2023-02-11T20:59:05.474Z,103035.41
2023-02-11T21:01:34.902Z,103044.94
2023-02-11T21:04:04.429Z,103050.53
2023-02-11T21:06:34.463Z,103045.47
2023-02-11T21:09:02.523Z,103054.56
2023-02-11T21:11:31.754Z,103050.78
2023-02-11T21:13:59.388Z,103049.25
2023-02-11T21:16:27.703Z,103055.81
2023-02-11T21:18:56.758Z,103046.84
2023-02-11T21:21:24.939Z,103048.13
2023-02-11T21:23:52.475Z,103053.59
2023-02-11T21:26:20.091Z,103063.06
2023-02-11T21:28:49.989Z,103070.34
2023-02-11T21:31:21.495Z,103076.75
2023-02-11T21:33:49.637Z,103078.19
2023-02-11T21:36:17.668Z,103081.44
2023-02-11T21:38:45.296Z,103083.25
2023-02-11T21:41:13.178Z,103089.41
2023-02-11T21:43:40.737Z,103086.75
2023-02-11T21:46:11.059Z,103093.88
2023-02-11T21:48:39.199Z,103095.00
2023-02-11T21:51:08.549Z,103096.69
2023-02-11T21:53:36.598Z,103103.66
2023-02-11T21:56:06.208Z,103103.34
2023-02-11T21:58:34.527Z,103109.97
2023-02-11T22:01:02.491Z,103117.69
2023-02-11T22:03:31.395Z,103117.97
2023-02-11T22:05:58.915Z,103116.72
2023-02-11T22:08:26.494Z,103114.03
2023-02-11T22:10:54.090Z,103127.56
2023-02-11T22:13:21.640Z,103116.59
2023-02-11T22:15:58.587Z,103117.19
2023-02-11T22:18:26.185Z,103123.84
2023-02-11T22:21:02.444Z,103126.91
2023-02-11T22:23:30.541Z,103135.59
2023-02-11T22:25:58.657Z,103136.75
2023-02-11T22:28:26.910Z,103137.97
2023-02-11T22:30:55.387Z,103143.03
2023-02-11T22:33:23.616Z,103141.16
2023-02-11T22:35:58.906Z,103142.59
2023-02-11T22:38:28.701Z,103149.03
2023-02-11T22:40:56.608Z,103150.00
2023-02-11T22:43:24.240Z,103152.53
2023-02-11T22:45:52.107Z,103147.47
2023-02-11T22:48:22.817Z,103153.34
2023-02-11T22:50:50.628Z,103161.34
2023-02-11T22:53:18.392Z,103158.81
2023-02-11T22:55:47.354Z,103156.16
2023-02-11T22:58:14.866Z,103158.81
2023-02-11T23:00:42.621Z,103171.41
2023-02-11T23:03:15.463Z,103160.78
2023-02-11T23:05:43.622Z,103169.19
2023-02-11T23:08:12.375Z,103171.41
2023-02-11T23:10:41.017Z,103177.69
2023-02-11T23:13:10.368Z,103178.22
2023-02-11T23:15:40.542Z,103181.13
2023-02-11T23:18:08.814Z,103191.75
2023-02-11T23:20:37.064Z,103187.66
2023-02-11T23:23:05.252Z,103186.84
2023-02-11T23:25:33.569Z,103190.81
2023-02-11T23:28:02.038Z,103187.22
2023-02-11T23:30:31.142Z,103197.06
2023-02-11T23:32:58.707Z,103203.16
2023-02-11T23:35:26.235Z,103207.25
2023-02-11T23:37:54.478Z,103199.66
2023-02-11T23:40:22.491Z,103204.88
2023-02-11T23:42:50.034Z,103210.88
2023-02-11T23:45:17.658Z,103203.41
2023-02-11T23:47:47.471Z,103212.38
2023-02-11T23:50:15.264Z,103215.75
2023-02-11T23:52:42.829Z,103217.31
2023-02-11T23:55:10.738Z,103218.41
2023-02-11T23:57:38.385Z,103217.69
